Time;durP1;ratioP1;P1;durP2;ratioP2;P2;SDS_P1;SDS_P2;PMS_P1;PMS_P2;Temp;Humidity;BMP_temperature;BMP_pressure;BME280_temperature;BME280_humidity;BME280_pressure;Samples;Min_cycle;Max_cycle;Signal;HPM_P1;HPM_P2
2023/03/12 00:02:11;;;;;;;11.80;3.72;;;5.20;48.10;;;;;;4943021;28;20070;-56
2023/03/12 00:04:38;;;;;;;9.30;3.28;;;5.20;48.20;;;;;;4944858;28;20505;-57
2023/03/12 00:07:07;;;;;;;7.07;3.45;;;5.20;48.20;;;;;;4943918;28;20423;-57
2023/03/12 00:09:37;;;;;;;9.23;3.90;;;5.20;48.20;;;;;;4942588;28;20415;-58
2023/03/12 00:12:06;;;;;;;8.70;3.35;;;5.20;48.20;;;;;;4942473;28;20070;-55
2023/03/12 00:14:33;;;;;;;5.38;3.13;;;5.20;48.20;;;;;;4944309;28;20059;-57
2023/03/12 00:17:01;;;;;;;6.65;3.53;;;5.30;48.20;;;;;;4925767;28;20063;-58
2023/03/12 00:19:28;;;;;;;8.05;3.42;;;5.30;48.20;;;;;;4945087;28;20420;-57
2023/03/12 00:21:55;;;;;;;7.93;3.42;;;5.30;48.20;;;;;;4941663;28;20074;-58
2023/03/12 00:24:22;;;;;;;9.10;3.72;;;5.30;48.10;;;;;;4945295;28;20392;-57
2023/03/12 00:26:51;;;;;;;10.70;3.83;;;5.30;48.10;;;;;;4942928;28;20047;-56
2023/03/12 00:29:18;;;;;;;12.85;4.45;;;5.30;48.10;;;;;;4943402;28;20062;-56
2023/03/12 00:31:46;;;;;;;9.27;3.30;;;5.30;48.10;;;;;;4943722;28;20051;-56
2023/03/12 00:34:13;;;;;;;10.88;3.90;;;5.30;48.00;;;;;;4943699;28;20063;-57
2023/03/12 00:36:40;;;;;;;6.55;3.05;;;5.30;48.00;;;;;;4945093;28;20046;-56
2023/03/12 00:39:08;;;;;;;7.90;3.35;;;5.30;48.00;;;;;;4944076;28;20052;-58
2023/03/12 00:41:35;;;;;;;12.68;3.63;;;5.30;48.00;;;;;;4942853;28;20059;-58
2023/03/12 00:44:03;;;;;;;8.43;3.15;;;5.30;48.00;;;;;;4943667;28;20067;-58
2023/03/12 00:46:31;;;;;;;10.23;3.35;;;5.30;48.00;;;;;;4944496;28;20062;-55
2023/03/12 00:48:58;;;;;;;16.48;4.63;;;5.30;48.00;;;;;;4943116;28;20399;-56
2023/03/12 00:51:25;;;;;;;10.77;3.95;;;5.30;48.00;;;;;;4943163;28;20808;-56
2023/03/12 00:53:54;;;;;;;11.73;3.45;;;5.30;48.00;;;;;;4944437;28;20591;-56
2023/03/12 00:56:22;;;;;;;13.00;4.28;;;5.30;48.00;;;;;;4942917;28;20407;-57
2023/03/12 00:58:49;;;;;;;11.88;3.83;;;5.30;48.10;;;;;;4944421;28;20063;-55
2023/03/12 01:01:18;;;;;;;7.63;3.40;;;5.30;48.00;;;;;;4943758;28;20503;-56
2023/03/12 01:03:45;;;;;;;6.25;2.97;;;5.30;48.10;;;;;;4942770;28;20050;-58
2023/03/12 01:06:13;;;;;;;6.90;3.67;;;5.30;48.10;;;;;;4942113;28;20062;-55
2023/03/12 01:08:40;;;;;;;7.28;3.65;;;5.30;48.10;;;;;;4946293;28;20047;-58
2023/03/12 01:11:07;;;;;;;8.88;3.85;;;5.30;48.10;;;;;;4946964;28;20062;-56
2023/03/12 01:13:35;;;;;;;7.95;3.63;;;5.30;48.10;;;;;;4946412;28;20066;-56
2023/03/12 01:16:02;;;;;;;6.85;2.78;;;5.30;48.10;;;;;;4946761;28;20047;-57
2023/03/12 01:18:30;;;;;;;11.38;3.30;;;5.30;48.10;;;;;;4945335;28;20048;-57
2023/03/12 01:20:58;;;;;;;11.65;3.50;;;5.30;48.20;;;;;;4945386;28;20063;-56
2023/03/12 01:23:25;;;;;;;12.13;3.42;;;5.40;48.30;;;;;;4946613;28;20059;-58
2023/03/12 01:25:54;;;;;;;8.00;3.88;;;5.40;48.30;;;;;;4945841;28;20051;-58
2023/03/12 01:28:21;;;;;;;6.07;2.70;;;5.30;48.20;;;;;;4947249;28;20062;-58
2023/03/12 01:30:49;;;;;;;11.15;3.22;;;5.30;48.20;;;;;;4947614;28;20055;-56
2023/03/12 01:33:17;;;;;;;9.55;3.33;;;5.40;48.30;;;;;;4945519;28;20075;-57
2023/03/12 01:35:45;;;;;;;6.85;2.75;;;5.30;48.30;;;;;;4946532;28;20047;-57
2023/03/12 01:38:15;;;;;;;8.02;3.10;;;5.40;48.30;;;;;;4946606;28;20516;-56
2023/03/12 01:40:44;;;;;;;5.53;2.70;;;5.40;48.30;;;;;;4945901;28;20082;-56
2023/03/12 01:43:27;;;;;;;8.88;3.13;;;5.40;48.30;;;;;;4947337;28;20059;-58
2023/03/12 01:46:04;;;;;;;5.38;3.03;;;5.40;48.30;;;;;;4946017;28;20055;-57
2023/03/12 01:48:36;;;;;;;7.72;3.17;;;5.30;48.40;;;;;;4946106;28;20064;-56
2023/03/12 01:51:08;;;;;;;8.38;3.15;;;5.40;48.50;;;;;;4947274;28;20055;-56
2023/03/12 01:53:37;;;;;;;11.63;3.67;;;5.40;48.50;;;;;;4944799;28;20051;-57
2023/03/12 01:56:07;;;;;;;10.63;3.25;;;5.40;48.50;;;;;;4942793;28;20061;-57
2023/03/12 01:58:37;;;;;;;10.80;3.33;;;5.40;48.60;;;;;;4946751;28;20062;-56
2023/03/12 02:01:05;;;;;;;8.45;2.97;;;5.40;48.50;;;;;;4946795;28;20062;-59
2023/03/12 02:03:33;;;;;;;4.53;2.58;;;5.40;48.50;;;;;;4945156;28;20078;-59
2023/03/12 02:06:05;;;;;;;11.23;3.00;;;5.40;48.40;;;;;;4943855;28;20323;-58
2023/03/12 02:08:37;;;;;;;8.10;3.17;;;5.40;48.30;;;;;;4944047;28;20051;-59
2023/03/12 02:11:04;;;;;;;5.22;2.20;;;5.40;48.20;;;;;;4943652;28;20058;-59
2023/03/12 02:13:32;;;;;;;4.45;2.65;;;5.40;48.10;;;;;;4946019;28;20062;-59
2023/03/12 02:15:59;;;;;;;9.90;2.53;;;5.40;48.20;;;;;;4946055;28;20423;-59
2023/03/12 02:18:27;;;;;;;9.90;2.30;;;5.40;48.10;;;;;;4945844;28;20051;-59
2023/03/12 02:21:04;;;;;;;4.38;2.17;;;5.40;48.10;;;;;;4944034;28;20067;-58
2023/03/12 02:23:40;;;;;;;6.55;2.45;;;5.40;48.10;;;;;;4945386;28;20051;-58
2023/03/12 02:26:11;;;;;;;7.50;2.72;;;5.40;48.00;;;;;;4944346;28;20575;-58
2023/03/12 02:28:45;;;;;;;10.55;2.38;;;5.40;48.00;;;;;;4946167;28;20058;-59
2023/03/12 02:31:17;;;;;;;8.68;2.85;;;5.40;48.00;;;;;;4944755;28;20055;-57
2023/03/12 02:33:44;;;;;;;8.20;2.50;;;5.40;48.00;;;;;;4944831;28;20055;-59
2023/03/12 02:36:12;;;;;;;4.55;2.38;;;5.40;48.00;;;;;;4945289;28;20050;-58
2023/03/12 02:38:42;;;;;;;7.25;2.47;;;5.40;48.00;;;;;;4947510;28;20338;-57
2023/03/12 02:41:18;;;;;;;8.05;2.70;;;5.40;48.00;;;;;;4944643;28;20059;-59
2023/03/12 02:43:49;;;;;;;9.25;2.67;;;5.40;48.00;;;;;;4945685;28;20059;-59
2023/03/12 02:46:16;;;;;;;12.85;3.13;;;5.40;48.00;;;;;;4944825;28;20055;-59
2023/03/12 02:48:44;;;;;;;8.75;2.85;;;5.40;48.00;;;;;;4945847;28;20069;-57
2023/03/12 02:51:11;;;;;;;6.25;2.30;;;5.50;48.10;;;;;;4946295;28;20070;-59
2023/03/12 02:53:38;;;;;;;5.90;2.55;;;5.50;48.00;;;;;;4947008;28;20062;-59
2023/03/12 02:56:06;;;;;;;6.80;2.70;;;5.50;48.00;;;;;;4943651;28;20054;-57
2023/03/12 02:58:36;;;;;;;9.20;2.35;;;5.50;47.90;;;;;;4943442;28;20054;-58
2023/03/12 03:01:03;;;;;;;6.13;2.65;;;5.50;47.90;;;;;;4943930;28;20058;-58
2023/03/12 03:03:31;;;;;;;10.18;2.90;;;5.50;47.80;;;;;;4944799;28;20740;-59
2023/03/12 03:05:58;;;;;;;12.00;2.63;;;5.50;47.90;;;;;;4943936;28;20063;-59
2023/03/12 03:08:25;;;;;;;7.15;2.13;;;5.50;48.00;;;;;;4944932;28;20518;-58
2023/03/12 03:11:24;;;;;;;6.28;2.40;;;5.50;47.90;;;;;;4944741;28;20051;-59
2023/03/12 03:13:53;;;;;;;8.35;2.80;;;5.50;47.90;;;;;;4946875;28;20062;-58
2023/03/12 03:16:21;;;;;;;7.43;2.47;;;5.50;47.90;;;;;;4944947;28;20070;-59
2023/03/12 03:18:48;;;;;;;7.88;2.85;;;5.50;47.80;;;;;;4945668;28;20066;-59
2023/03/12 03:21:16;;;;;;;8.68;2.10;;;5.50;47.80;;;;;;4945394;28;20066;-59
2023/03/12 03:23:45;;;;;;;15.82;2.75;;;5.50;47.80;;;;;;4945022;28;20916;-58
2023/03/12 03:26:12;;;;;;;5.40;2.22;;;5.50;47.90;;;;;;4946908;28;20062;-57
2023/03/12 03:28:40;;;;;;;9.88;2.58;;;5.50;47.90;;;;;;4947810;28;20059;-59
2023/03/12 03:31:09;;;;;;;6.28;2.10;;;5.50;47.80;;;;;;4945017;28;20082;-59
2023/03/12 03:33:38;;;;;;;8.02;2.70;;;5.50;47.80;;;;;;4944593;28;20062;-58
2023/03/12 03:36:07;;;;;;;6.43;2.35;;;5.60;47.90;;;;;;4944365;28;20053;-59
2023/03/12 03:38:35;;;;;;;11.02;2.35;;;5.60;47.90;;;;;;4943149;28;20410;-59
2023/03/12 03:41:03;;;;;;;6.38;2.30;;;5.60;47.90;;;;;;4944365;28;20057;-58
2023/03/12 03:43:30;;;;;;;4.75;2.00;;;5.60;47.80;;;;;;4945462;28;20489;-57
2023/03/12 03:45:58;;;;;;;8.35;2.70;;;5.60;47.80;;;;;;4944797;28;20055;-59
2023/03/12 03:48:26;;;;;;;8.48;2.83;;;5.60;47.80;;;;;;4944713;28;21011;-59
2023/03/12 03:50:54;;;;;;;9.07;2.42;;;5.60;47.80;;;;;;4933861;28;20067;-58
2023/03/12 03:53:21;;;;;;;7.78;2.22;;;5.70;47.80;;;;;;4942891;28;20059;-57
2023/03/12 03:55:48;;;;;;;7.38;1.73;;;5.70;47.80;;;;;;4942742;28;20055;-57
2023/03/12 03:58:16;;;;;;;6.60;2.17;;;5.70;47.60;;;;;;4944193;28;20063;-58
2023/03/12 04:00:45;;;;;;;5.35;1.80;;;5.70;47.60;;;;;;4945587;28;20073;-57
2023/03/12 04:03:13;;;;;;;7.95;1.90;;;5.70;47.60;;;;;;4944154;28;20407;-56
2023/03/12 04:05:43;;;;;;;7.13;2.03;;;5.70;47.60;;;;;;4944082;28;20410;-57
2023/03/12 04:08:11;;;;;;;9.85;2.05;;;5.70;47.50;;;;;;4943696;28;20061;-57
2023/03/12 04:10:38;;;;;;;7.95;1.90;;;5.70;47.40;;;;;;4943029;28;20089;-56
2023/03/12 04:13:06;;;;;;;5.43;1.92;;;5.70;47.40;;;;;;4942894;28;20591;-56
2023/03/12 04:15:33;;;;;;;7.05;2.50;;;5.80;47.40;;;;;;4944775;28;20059;-58
2023/03/12 04:18:00;;;;;;;5.68;1.50;;;5.70;47.30;;;;;;4946823;28;20055;-58
2023/03/12 04:20:27;;;;;;;8.57;1.70;;;5.70;47.40;;;;;;4942268;28;20055;-59
2023/03/12 04:22:57;;;;;;;5.93;1.65;;;5.80;47.40;;;;;;4940634;28;20070;-59
2023/03/12 04:25:24;;;;;;;6.43;1.67;;;5.70;47.20;;;;;;4943994;28;20059;-59
2023/03/12 04:27:51;;;;;;;7.60;2.40;;;5.80;47.40;;;;;;4942624;28;20115;-59
2023/03/12 04:30:19;;;;;;;7.78;2.55;;;5.80;47.40;;;;;;4942953;28;20616;-59
2023/03/12 04:32:46;;;;;;;6.53;2.38;;;5.80;47.40;;;;;;4944440;28;20058;-60
2023/03/12 04:35:13;;;;;;;4.93;1.65;;;5.80;47.30;;;;;;4942618;28;20435;-59
2023/03/12 04:37:40;;;;;;;6.38;1.80;;;5.80;47.50;;;;;;4943463;28;20051;-58
2023/03/12 04:40:11;;;;;;;4.05;1.45;;;5.80;47.50;;;;;;4943554;28;20055;-57
2023/03/12 04:42:38;;;;;;;7.65;2.25;;;5.80;47.60;;;;;;4944153;28;20058;-59
2023/03/12 04:45:07;;;;;;;10.23;2.03;;;5.80;47.60;;;;;;4947322;28;20051;-59
2023/03/12 04:47:34;;;;;;;6.25;2.20;;;5.80;47.60;;;;;;4948861;28;20073;-59
2023/03/12 04:50:01;;;;;;;8.15;1.73;;;5.80;48.10;;;;;;4947769;28;20074;-58
2023/03/12 04:52:29;;;;;;;9.15;1.95;;;5.80;47.80;;;;;;4951256;28;20054;-58
2023/03/12 04:54:58;;;;;;;5.63;1.92;;;5.80;47.90;;;;;;4946678;28;20059;-59
2023/03/12 04:57:26;;;;;;;10.88;1.80;;;5.80;48.10;;;;;;4947751;28;20407;-59
2023/03/12 04:59:54;;;;;;;12.02;1.90;;;5.80;48.40;;;;;;4947563;28;20416;-59
2023/03/12 05:02:21;;;;;;;3.17;1.75;;;5.80;48.60;;;;;;4946762;28;20055;-59
2023/03/12 05:04:48;;;;;;;6.85;2.00;;;5.80;48.90;;;;;;4946022;28;20058;-59
2023/03/12 05:07:15;;;;;;;8.35;2.42;;;5.80;48.90;;;;;;4947379;28;20054;-59
2023/03/12 05:09:45;;;;;;;7.03;1.85;;;5.80;49.30;;;;;;4946930;28;20047;-58
2023/03/12 05:12:12;;;;;;;8.55;1.67;;;5.80;49.60;;;;;;4944264;28;20061;-59
2023/03/12 05:14:41;;;;;;;5.70;1.83;;;5.80;49.70;;;;;;4947546;28;20059;-59
2023/03/12 05:17:08;;;;;;;4.00;1.42;;;5.80;50.00;;;;;;4945665;28;20058;-59
2023/03/12 05:19:35;;;;;;;7.63;2.40;;;5.80;50.10;;;;;;4947228;28;20047;-59
2023/03/12 05:22:02;;;;;;;10.40;2.08;;;5.80;50.30;;;;;;4946584;28;20055;-59
2023/03/12 05:24:29;;;;;;;2.88;1.70;;;5.80;50.50;;;;;;4945696;28;20043;-59
2023/03/12 05:26:57;;;;;;;5.95;2.05;;;5.80;50.70;;;;;;4946920;28;20059;-59
2023/03/12 05:29:24;;;;;;;9.05;2.60;;;5.80;50.80;;;;;;4947198;28;20055;-58
2023/03/12 05:31:53;;;;;;;7.43;2.20;;;5.80;51.00;;;;;;4947957;28;20054;-59
2023/03/12 05:34:20;;;;;;;6.38;2.03;;;5.80;51.30;;;;;;4947555;28;20404;-59
2023/03/12 05:36:47;;;;;;;11.10;2.42;;;5.70;51.20;;;;;;4943206;28;20055;-58
2023/03/12 05:39:14;;;;;;;9.40;2.13;;;5.70;51.40;;;;;;4948838;28;20059;-56
2023/03/12 05:41:42;;;;;;;16.52;2.30;;;5.70;51.60;;;;;;4946680;28;20055;-58
2023/03/12 05:44:12;;;;;;;4.93;1.90;;;5.60;51.60;;;;;;4947712;28;20047;-58
2023/03/12 05:46:39;;;;;;;10.98;2.50;;;5.60;52.00;;;;;;4945337;28;20051;-59
2023/03/12 05:49:08;;;;;;;7.50;1.80;;;5.60;52.30;;;;;;4946203;28;20062;-59
2023/03/12 05:51:36;;;;;;;6.07;2.10;;;5.60;52.30;;;;;;4944241;28;20050;-58
2023/03/12 05:54:03;;;;;;;5.65;1.85;;;5.60;52.40;;;;;;4947249;28;20487;-57
2023/03/12 05:56:31;;;;;;;7.10;2.35;;;5.60;52.70;;;;;;4944824;28;20110;-57
2023/03/12 05:58:58;;;;;;;4.38;1.90;;;5.50;52.80;;;;;;4944989;28;20062;-58
2023/03/12 06:01:27;;;;;;;3.35;1.80;;;5.50;53.00;;;;;;4946178;28;20396;-58
2023/03/12 06:03:55;;;;;;;5.78;2.42;;;5.50;53.00;;;;;;4945761;28;20051;-59
2023/03/12 06:06:24;;;;;;;6.95;2.50;;;5.50;53.10;;;;;;4945176;28;20637;-58
2023/03/12 06:08:51;;;;;;;5.93;2.40;;;5.50;53.40;;;;;;4945393;28;20055;-58
2023/03/12 06:11:19;;;;;;;29.67;10.68;;;5.50;53.50;;;;;;4945044;28;20496;-59
2023/03/12 06:13:46;;;;;;;17.08;6.28;;;5.50;53.60;;;;;;4945511;28;20051;-59
2023/03/12 06:16:17;;;;;;;7.63;2.70;;;5.50;53.70;;;;;;4945677;28;20058;-59
2023/03/12 06:18:44;;;;;;;5.80;1.92;;;5.50;54.00;;;;;;4946960;28;20051;-58
2023/03/12 06:21:15;;;;;;;7.93;2.45;;;5.50;54.00;;;;;;4944285;28;20066;-57
2023/03/12 06:23:44;;;;;;;7.22;2.22;;;5.50;54.10;;;;;;4947180;28;20062;-59
2023/03/12 06:26:12;;;;;;;10.15;2.13;;;5.50;54.30;;;;;;4943494;28;20066;-59
2023/03/12 06:28:41;;;;;;;7.85;2.35;;;5.50;54.40;;;;;;4946796;28;20522;-57
2023/03/12 06:31:08;;;;;;;11.00;2.15;;;5.50;54.50;;;;;;4945636;28;20419;-59
2023/03/12 06:33:36;;;;;;;10.50;2.20;;;5.50;54.60;;;;;;4945597;28;20055;-58
2023/03/12 06:36:05;;;;;;;5.38;1.90;;;5.50;54.70;;;;;;4945985;28;20051;-59
2023/03/12 06:38:33;;;;;;;5.85;2.53;;;5.50;54.80;;;;;;4946266;28;20411;-58
2023/03/12 06:41:03;;;;;;;8.32;2.33;;;5.50;54.80;;;;;;4945796;28;20372;-59
2023/03/12 06:43:32;;;;;;;7.50;2.00;;;5.50;55.00;;;;;;4945365;28;20055;-58
2023/03/12 06:46:00;;;;;;;12.35;2.08;;;5.50;55.00;;;;;;4943495;28;20059;-59
2023/03/12 06:48:29;;;;;;;27.80;8.43;;;5.50;55.00;;;;;;4945292;28;20128;-58
2023/03/12 06:50:56;;;;;;;12.18;3.35;;;5.50;55.00;;;;;;4945078;28;20058;-59
2023/03/12 06:53:24;;;;;;;7.32;2.00;;;5.60;55.20;;;;;;4943944;28;20059;-59
2023/03/12 06:55:52;;;;;;;8.75;2.45;;;5.60;55.10;;;;;;4942467;28;20050;-59
2023/03/12 06:58:21;;;;;;;11.80;2.80;;;5.60;55.10;;;;;;4944534;28;20397;-58
2023/03/12 07:00:48;;;;;;;6.35;2.22;;;5.60;55.20;;;;;;4942076;28;20062;-58
2023/03/12 07:03:15;;;;;;;12.32;2.47;;;5.60;55.30;;;;;;4940005;28;20054;-59
2023/03/12 07:05:44;;;;;;;7.53;2.35;;;5.60;55.20;;;;;;4945649;28;20062;-59
2023/03/12 07:08:12;;;;;;;12.00;2.97;;;5.60;55.30;;;;;;4946363;28;20059;-58
2023/03/12 07:10:39;;;;;;;12.30;2.72;;;5.60;55.30;;;;;;4941094;28;20435;-58
2023/03/12 07:13:07;;;;;;;6.53;2.30;;;5.60;55.20;;;;;;4944657;28;20055;-58
2023/03/12 07:15:36;;;;;;;5.65;1.90;;;5.60;55.30;;;;;;4943967;28;20043;-57
2023/03/12 07:18:04;;;;;;;7.20;2.17;;;5.70;55.30;;;;;;4946095;28;20069;-59
2023/03/12 07:20:32;;;;;;;8.18;2.42;;;5.70;55.30;;;;;;4943718;28;20066;-59
2023/03/12 07:22:59;;;;;;;6.70;2.28;;;5.70;55.30;;;;;;4946239;28;20110;-59
2023/03/12 07:25:27;;;;;;;7.63;2.63;;;5.70;55.30;;;;;;4948017;28;20062;-58
2023/03/12 07:27:54;;;;;;;7.68;2.67;;;5.70;55.30;;;;;;4945742;28;20418;-59
2023/03/12 07:30:21;;;;;;;6.05;2.78;;;5.80;55.40;;;;;;4947329;28;20043;-57
2023/03/12 07:32:50;;;;;;;6.60;2.30;;;5.80;55.40;;;;;;4943903;28;20119;-59
2023/03/12 07:35:17;;;;;;;7.45;2.25;;;5.80;55.30;;;;;;4943888;28;20059;-59
2023/03/12 07:37:45;;;;;;;6.00;1.95;;;5.80;55.40;;;;;;4945656;28;20051;-56
2023/03/12 07:40:12;;;;;;;8.35;2.38;;;5.80;55.40;;;;;;4945786;28;20519;-59
2023/03/12 07:42:40;;;;;;;10.02;2.95;;;5.90;55.50;;;;;;4943718;28;20062;-58
2023/03/12 07:45:08;;;;;;;6.78;2.42;;;5.90;55.40;;;;;;4947003;28;20411;-59
2023/03/12 07:47:35;;;;;;;9.45;2.88;;;5.90;55.50;;;;;;4946067;28;20081;-59
2023/03/12 07:50:04;;;;;;;7.53;3.05;;;5.90;55.50;;;;;;4944787;28;20418;-58
2023/03/12 07:52:31;;;;;;;8.20;2.70;;;5.90;55.60;;;;;;4945260;28;20053;-58
2023/03/12 07:54:58;;;;;;;10.68;2.80;;;5.90;55.60;;;;;;4945247;28;20058;-60
2023/03/12 07:57:26;;;;;;;13.02;3.05;;;6.00;55.70;;;;;;4943541;28;20055;-58
2023/03/12 07:59:53;;;;;;;11.35;2.30;;;6.00;55.80;;;;;;4946595;28;20530;-59
2023/03/12 08:02:20;;;;;;;5.85;2.70;;;6.00;55.90;;;;;;4940812;28;20059;-59
2023/03/12 08:04:48;;;;;;;10.18;2.72;;;6.00;55.80;;;;;;4944349;28;20567;-59
2023/03/12 08:07:16;;;;;;;7.75;2.30;;;6.10;55.90;;;;;;4945116;28;20055;-60
2023/03/12 08:09:44;;;;;;;12.07;3.08;;;6.10;55.90;;;;;;4945143;28;20051;-60
2023/03/12 08:12:11;;;;;;;8.07;2.53;;;6.10;56.00;;;;;;4941978;28;20051;-59
2023/03/12 08:14:39;;;;;;;8.50;2.55;;;6.10;56.00;;;;;;4941830;28;20058;-59
2023/03/12 08:17:06;;;;;;;9.52;2.67;;;6.20;56.40;;;;;;4944527;28;20518;-58
2023/03/12 08:19:33;;;;;;;7.28;2.78;;;6.20;56.00;;;;;;4948040;28;20141;-57
2023/03/12 08:22:01;;;;;;;7.28;2.53;;;6.20;56.10;;;;;;4947917;28;20071;-59
2023/03/12 08:24:29;;;;;;;6.00;2.50;;;6.30;56.10;;;;;;4946466;28;20961;-59
2023/03/12 08:26:56;;;;;;;9.73;3.05;;;6.30;56.10;;;;;;4946538;28;20051;-58
2023/03/12 08:29:24;;;;;;;2.90;1.85;;;6.30;56.20;;;;;;4949093;28;20484;-58
2023/03/12 08:31:51;;;;;;;6.30;2.22;;;6.40;56.20;;;;;;4947956;28;20055;-59
2023/03/12 08:34:18;;;;;;;8.13;2.63;;;6.40;56.20;;;;;;4948728;28;20047;-58
2023/03/12 08:36:45;;;;;;;7.63;2.65;;;6.40;56.30;;;;;;4948103;28;20047;-58
2023/03/12 08:39:13;;;;;;;4.88;2.38;;;6.40;56.40;;;;;;4948955;28;20054;-59
2023/03/12 08:41:41;;;;;;;7.68;2.75;;;6.50;56.40;;;;;;4946532;28;20059;-57
2023/03/12 08:44:09;;;;;;;4.15;2.05;;;6.50;56.40;;;;;;4947849;28;20070;-59
2023/03/12 08:46:36;;;;;;;9.10;2.78;;;6.50;56.40;;;;;;4944518;28;20047;-59
2023/03/12 08:49:04;;;;;;;8.10;2.42;;;6.60;56.40;;;;;;4950653;28;20055;-58
2023/03/12 08:51:31;;;;;;;8.68;2.35;;;6.60;56.40;;;;;;4949726;28;20058;-59
2023/03/12 08:53:58;;;;;;;88.18;33.33;;;6.60;56.40;;;;;;4945887;28;20058;-57
2023/03/12 08:56:25;;;;;;;24.08;9.18;;;6.70;56.50;;;;;;4945844;28;20062;-58
2023/03/12 08:58:54;;;;;;;8.52;4.53;;;6.70;56.40;;;;;;4947360;28;20395;-58
2023/03/12 09:01:21;;;;;;;12.63;3.53;;;6.70;56.40;;;;;;4945469;28;20063;-58
2023/03/12 09:03:51;;;;;;;6.53;2.30;;;6.80;56.50;;;;;;4944289;28;20055;-58
2023/03/12 09:06:19;;;;;;;8.00;2.80;;;6.80;56.50;;;;;;4946861;28;20070;-59
2023/03/12 09:08:48;;;;;;;5.82;2.42;;;6.90;56.60;;;;;;4948638;28;20050;-56
2023/03/12 09:11:15;;;;;;;6.75;2.35;;;6.90;56.60;;;;;;4945796;28;20058;-58
2023/03/12 09:13:43;;;;;;;10.07;3.60;;;6.90;56.60;;;;;;4946933;28;20070;-59
2023/03/12 09:16:12;;;;;;;5.47;2.80;;;7.00;56.80;;;;;;4945446;28;20427;-58
2023/03/12 09:18:39;;;;;;;5.82;2.67;;;7.00;57.00;;;;;;4945957;28;20402;-58
2023/03/12 09:21:06;;;;;;;11.25;3.30;;;7.00;57.00;;;;;;4947054;28;20050;-58
2023/03/12 09:23:33;;;;;;;6.15;3.40;;;7.10;57.10;;;;;;4947391;28;20435;-59
2023/03/12 09:26:01;;;;;;;8.20;3.05;;;7.20;57.10;;;;;;4946153;28;20066;-58
2023/03/12 09:28:28;;;;;;;5.97;2.63;;;7.20;57.30;;;;;;4947433;28;20408;-59
2023/03/12 09:30:55;;;;;;;9.52;3.00;;;7.20;57.40;;;;;;4946180;28;20058;-59
2023/03/12 09:33:24;;;;;;;10.07;3.90;;;7.30;57.40;;;;;;4946971;28;20487;-58
2023/03/12 09:35:57;;;;;;;7.43;3.30;;;7.30;57.50;;;;;;4945696;28;20074;-58
2023/03/12 09:38:25;;;;;;;8.18;4.22;;;7.40;57.80;;;;;;4945922;28;20047;-58
2023/03/12 09:40:53;;;;;;;9.45;4.15;;;7.40;57.80;;;;;;4947192;28;20055;-60
2023/03/12 09:43:26;;;;;;;9.05;3.80;;;7.40;57.90;;;;;;4946523;28;20051;-59
2023/03/12 09:45:55;;;;;;;7.00;4.43;;;7.50;58.00;;;;;;4944457;28;20051;-59
2023/03/12 09:48:32;;;;;;;8.57;3.47;;;7.50;58.00;;;;;;4944755;28;20392;-59
2023/03/12 09:51:03;;;;;;;7.68;2.80;;;7.60;58.20;;;;;;4945847;28;20059;-58
2023/03/12 09:53:35;;;;;;;6.43;3.25;;;7.60;58.10;;;;;;4945913;28;20047;-59
2023/03/12 09:56:08;;;;;;;6.95;4.53;;;7.70;58.10;;;;;;4944811;28;20070;-59
2023/03/12 09:58:37;;;;;;;7.38;4.25;;;7.70;58.20;;;;;;4945942;28;20051;-60
2023/03/12 10:01:14;;;;;;;6.90;4.82;;;7.80;58.20;;;;;;4944895;28;20518;-59
2023/03/12 10:04:00;;;;;;;11.93;5.68;;;7.80;58.20;;;;;;4945015;28;20077;-59
2023/03/12 10:06:34;;;;;;;7.28;4.97;;;7.90;58.40;;;;;;4945718;28;20060;-59
2023/03/12 10:09:14;;;;;;;7.57;5.15;;;7.90;58.30;;;;;;4944715;28;20066;-60
2023/03/12 10:11:50;;;;;;;16.45;8.68;;;7.90;58.40;;;;;;4943679;28;20488;-60
2023/03/12 10:14:30;;;;;;;17.45;8.77;;;8.00;58.50;;;;;;4944899;28;20062;-60
2023/03/12 10:17:14;;;;;;;7.65;5.00;;;8.10;58.60;;;;;;4946217;28;20059;-59
2023/03/12 10:19:59;;;;;;;12.23;5.82;;;8.10;58.70;;;;;;4943031;28;20445;-59
2023/03/12 10:22:39;;;;;;;11.45;5.75;;;8.10;58.70;;;;;;4946344;28;20369;-57
2023/03/12 10:25:15;;;;;;;9.25;4.50;;;8.20;58.60;;;;;;4946099;28;20055;-55
2023/03/12 10:27:43;;;;;;;7.70;3.90;;;8.20;58.60;;;;;;4943784;28;20066;-55
2023/03/12 10:30:17;;;;;;;6.72;3.97;;;8.20;58.60;;;;;;4944772;28;20361;-56
2023/03/12 10:32:49;;;;;;;8.75;4.70;;;8.30;58.90;;;;;;4945061;28;20500;-56
2023/03/12 10:35:20;;;;;;;8.95;4.93;;;8.30;58.90;;;;;;4944658;28;20066;-55
2023/03/12 10:37:50;;;;;;;116.18;43.88;;;8.40;59.00;;;;;;4944554;28;20050;-55
2023/03/12 10:40:19;;;;;;;24.52;10.82;;;8.40;59.00;;;;;;4944660;28;20404;-56
2023/03/12 10:42:47;;;;;;;12.95;5.82;;;8.40;58.90;;;;;;4944498;28;20055;-56
2023/03/12 10:45:29;;;;;;;7.38;3.75;;;8.40;59.00;;;;;;4944338;28;20078;-57
2023/03/12 10:48:00;;;;;;;11.20;3.47;;;8.50;59.10;;;;;;4946834;28;20066;-54
2023/03/12 10:50:30;;;;;;;19.63;10.35;;;8.50;59.00;;;;;;4946560;28;20471;-57
2023/03/12 10:53:20;;;;;;;140.60;49.88;;;8.60;59.10;;;;;;4945041;28;20062;-55
2023/03/12 10:55:59;;;;;;;52.83;24.85;;;8.60;59.20;;;;;;4943643;28;20062;-57
2023/03/12 10:58:31;;;;;;;31.27;19.02;;;8.60;59.20;;;;;;4946175;28;20058;-57
2023/03/12 11:01:00;;;;;;;17.60;8.05;;;8.60;59.10;;;;;;4946075;28;20062;-57
2023/03/12 11:03:29;;;;;;;8.48;5.25;;;8.70;59.30;;;;;;4945579;28;20484;-55
2023/03/12 11:06:00;;;;;;;9.25;5.03;;;8.70;59.50;;;;;;4945077;28;20055;-56
2023/03/12 11:08:29;;;;;;;7.03;4.03;;;8.70;59.70;;;;;;4943444;28;20058;-54
2023/03/12 11:10:57;;;;;;;8.48;3.45;;;8.70;59.70;;;;;;4944722;28;20051;-58
2023/03/12 11:13:28;;;;;;;6.28;3.75;;;8.80;59.70;;;;;;4944888;28;20062;-55
2023/03/12 11:15:57;;;;;;;5.68;3.53;;;8.80;59.80;;;;;;4943320;28;20054;-55
2023/03/12 11:18:29;;;;;;;6.53;3.50;;;8.80;60.00;;;;;;4945532;28;20070;-56
2023/03/12 11:21:13;;;;;;;8.23;4.70;;;8.90;60.10;;;;;;4941379;28;20058;-52
2023/03/12 11:23:42;;;;;;;;;;;8.90;60.40;;;;;;4946813;28;20050;-58
2023/03/12 11:26:15;;;;;;;5.43;3.50;;;8.90;60.30;;;;;;4944174;28;20210;-59
2023/03/12 11:28:46;;;;;;;9.77;3.63;;;9.00;59.80;;;;;;4944791;28;20055;-58
2023/03/12 11:31:23;;;;;;;8.48;4.03;;;9.00;59.90;;;;;;4944618;28;20061;-57
2023/03/12 11:33:52;;;;;;;6.57;3.75;;;9.00;60.70;;;;;;4945569;28;20451;-54
2023/03/12 11:36:46;;;;;;;5.65;3.35;;;9.10;60.10;;;;;;4945446;28;20059;-58
2023/03/12 11:39:24;;;;;;;4.65;2.70;;;9.10;60.50;;;;;;4946349;28;20047;-55
2023/03/12 11:42:20;;;;;;;5.05;3.13;;;9.20;60.60;;;;;;4942679;28;20062;-59
2023/03/12 11:44:58;;;;;;;7.75;2.75;;;9.20;60.90;;;;;;4945432;28;20407;-55
2023/03/12 11:47:37;;;;;;;8.18;3.30;;;9.30;60.80;;;;;;4945059;28;20067;-58
2023/03/12 11:50:15;;;;;;;7.85;3.45;;;9.30;60.60;;;;;;4946296;28;20505;-57
2023/03/12 11:53:06;;;;;;;7.05;3.55;;;9.40;60.70;;;;;;4945047;28;20070;-56
2023/03/12 11:55:57;;;;;;;9.25;5.07;;;9.40;60.70;;;;;;4945822;28;20435;-56
2023/03/12 11:58:40;;;;;;;8.35;4.10;;;9.40;60.90;;;;;;4944016;28;20063;-53
2023/03/12 12:01:12;;;;;;;6.97;4.72;;;9.50;60.90;;;;;;4944688;28;20065;-55
2023/03/12 12:03:59;;;;;;;7.70;4.93;;;9.50;60.80;;;;;;4944023;28;20051;-55
2023/03/12 12:06:35;;;;;;;8.63;4.65;;;9.50;60.90;;;;;;4945746;28;20047;-59
2023/03/12 12:09:14;;;;;;;7.20;3.45;;;9.60;61.30;;;;;;4945275;28;20066;-56
2023/03/12 12:12:03;;;;;;;7.68;3.30;;;9.60;61.70;;;;;;4942867;28;20063;-55
2023/03/12 12:14:44;;;;;;;5.28;2.17;;;9.70;62.40;;;;;;4943425;28;20059;-58
2023/03/12 12:17:25;;;;;;;3.75;1.90;;;9.80;62.60;;;;;;4943926;28;20062;-56
2023/03/12 12:20:16;;;;;;;4.70;1.58;;;9.80;63.40;;;;;;4944397;28;20055;-55
2023/03/12 12:22:57;;;;;;;6.60;1.83;;;9.90;64.20;;;;;;4944612;28;20058;-59
2023/03/12 12:25:35;;;;;;;6.60;1.90;;;10.00;65.30;;;;;;4943818;28;20051;-57
2023/03/12 12:28:28;;;;;;;12.82;1.80;;;10.10;65.70;;;;;;4943459;28;20065;-54
2023/03/12 12:31:12;;;;;;;6.45;2.22;;;10.30;66.40;;;;;;4942216;28;20059;-55
2023/03/12 12:34:01;;;;;;;11.52;2.60;;;10.40;65.90;;;;;;4945014;28;20054;-57
2023/03/12 12:36:33;;;;;;;6.32;2.75;;;10.50;65.60;;;;;;4944752;28;20062;-56
2023/03/12 12:39:04;;;;;;;12.57;4.32;;;10.60;65.20;;;;;;4944915;28;20055;-57
2023/03/12 12:41:38;;;;;;;8.40;2.60;;;10.70;65.10;;;;;;4943444;28;20426;-56
2023/03/12 12:44:11;;;;;;;4.60;1.70;;;10.90;65.40;;;;;;4945341;28;20050;-57
2023/03/12 12:46:42;;;;;;;4.53;1.40;;;11.00;65.20;;;;;;4945068;28;20055;-58
2023/03/12 12:49:13;;;;;;;9.38;2.20;;;11.10;65.10;;;;;;4945874;28;20058;-56
2023/03/12 12:51:44;;;;;;;5.18;1.83;;;11.20;64.80;;;;;;4944824;28;20499;-59
2023/03/12 12:54:23;;;;;;;3.72;1.30;;;11.30;64.90;;;;;;4944294;28;20496;-58
2023/03/12 12:56:57;;;;;;;4.57;2.10;;;11.40;64.90;;;;;;4944301;28;20051;-58
2023/03/12 12:59:49;;;;;;;3.67;1.30;;;11.40;64.50;;;;;;4945367;28;20063;-53
2023/03/12 13:02:19;;;;;;;5.28;1.10;;;11.60;64.10;;;;;;4944266;28;20515;-57
2023/03/12 13:04:47;;;;;;;4.18;1.00;;;11.60;63.60;;;;;;4948362;28;20051;-56
2023/03/12 13:07:33;;;;;;;4.70;1.38;;;11.70;63.50;;;;;;4948430;28;20507;-58
2023/03/12 13:10:06;;;;;;;6.65;1.17;;;11.80;63.80;;;;;;4947508;28;20059;-55